createdAt,value
2019-02-26T00:01:59.925Z,42.53
2019-02-26T00:04:29.778Z,71.72
2019-02-26T00:07:00.457Z,64.47
2019-02-26T00:09:30.565Z,65.22
2019-02-26T00:12:01.213Z,45.28
2019-02-26T00:14:30.712Z,45.03
2019-02-26T00:17:00.207Z,63.10
2019-02-26T00:19:29.738Z,37.55
2019-02-26T00:21:59.224Z,35.58
2019-02-26T00:24:30.768Z,30.88
2019-02-26T00:27:01.458Z,19.73
2019-02-26T00:29:32.134Z,21.70
2019-02-26T00:32:01.757Z,24.90
2019-02-26T00:34:32.275Z,25.12
2019-02-26T00:37:04.069Z,20.05
2019-02-26T00:39:33.933Z,16.10
2019-02-26T00:42:05.165Z,12.65
2019-02-26T00:44:35.455Z,11.03
2019-02-26T00:47:06.686Z,9.70
2019-02-26T00:49:37.053Z,8.75
2019-02-26T00:52:08.496Z,7.55
2019-02-26T00:54:37.798Z,10.82
2019-02-26T00:57:08.639Z,8.45
2019-02-26T00:59:40.758Z,10.08
2019-02-26T01:02:10.120Z,10.88
2019-02-26T01:04:41.367Z,5.95
2019-02-26T01:07:10.828Z,9.45
2019-02-26T01:09:40.383Z,7.12
2019-02-26T01:12:11.798Z,5.53
2019-02-26T01:14:43.211Z,9.03
2019-02-26T01:17:14.254Z,6.28
2019-02-26T01:19:43.579Z,4.42
2019-02-26T01:22:13.061Z,4.58
2019-02-26T01:24:42.552Z,10.93
2019-02-26T01:27:12.034Z,7.28
2019-02-26T01:29:41.530Z,6.75
2019-02-26T01:32:13.193Z,6.90
2019-02-26T01:34:43.154Z,6.67
2019-02-26T01:37:13.593Z,4.55
2019-02-26T01:39:44.847Z,3.83
2019-02-26T01:42:17.355Z,6.50
2019-02-26T01:44:45.492Z,6.62
2019-02-26T01:47:17.064Z,7.53
2019-02-26T01:49:47.222Z,4.83
2019-02-26T01:52:17.554Z,5.00
2019-02-26T01:54:47.030Z,5.95
2019-02-26T01:57:17.365Z,7.47
2019-02-26T01:59:50.241Z,7.78
2019-02-26T02:02:20.290Z,6.70
2019-02-26T02:04:50.507Z,3.50
2019-02-26T02:07:21.322Z,9.25
2019-02-26T02:09:53.061Z,6.00
2019-02-26T02:12:25.410Z,4.08
2019-02-26T02:14:53.865Z,4.17
2019-02-26T02:17:23.332Z,7.30
2019-02-26T02:19:52.867Z,6.58
2019-02-26T02:22:22.343Z,4.08
2019-02-26T02:24:53.981Z,7.65
2019-02-26T02:27:26.842Z,5.58
2019-02-26T02:29:55.387Z,6.03
2019-02-26T02:32:26.616Z,7.10
2019-02-26T02:35:00.613Z,9.45
2019-02-26T02:37:30.015Z,4.17
2019-02-26T02:39:59.292Z,3.90
2019-02-26T02:42:28.798Z,5.50
2019-02-26T02:44:58.281Z,4.28
2019-02-26T02:47:30.831Z,3.47
2019-02-26T02:49:59.120Z,5.33
2019-02-26T02:52:30.409Z,5.53
2019-02-26T02:54:59.840Z,5.42
2019-02-26T02:57:30.005Z,5.25
2019-02-26T03:00:02.624Z,6.62
2019-02-26T03:02:31.768Z,5.60
2019-02-26T03:05:01.253Z,5.25
2019-02-26T03:07:30.742Z,4.83
2019-02-26T03:10:06.123Z,6.30
2019-02-26T03:12:33.334Z,5.45
2019-02-26T03:15:05.503Z,7.80
2019-02-26T03:17:34.175Z,4.70
2019-02-26T03:20:05.563Z,4.95
2019-02-26T03:22:36.905Z,4.05
2019-02-26T03:25:16.523Z,6.25
2019-02-26T03:27:45.547Z,5.70
2019-02-26T03:30:27.402Z,7.20
2019-02-26T03:32:58.566Z,4.60
2019-02-26T03:35:23.742Z,7.35
2019-02-26T03:37:57.249Z,5.33
2019-02-26T03:40:27.028Z,6.35
2019-02-26T03:42:56.258Z,4.62
2019-02-26T03:45:25.773Z,6.12
2019-02-26T03:47:57.876Z,5.90
2019-02-26T03:50:27.259Z,6.65
2019-02-26T03:52:56.781Z,4.75
2019-02-26T03:55:26.252Z,7.12
2019-02-26T03:57:56.975Z,4.75
2019-02-26T04:00:26.963Z,4.53
2019-02-26T04:02:56.592Z,10.05
2019-02-26T04:05:26.143Z,5.83
2019-02-26T04:07:58.930Z,9.00
2019-02-26T04:10:28.837Z,5.78
2019-02-26T04:12:58.388Z,4.25
2019-02-26T04:15:30.004Z,5.97
2019-02-26T04:17:59.108Z,5.83
2019-02-26T04:20:28.616Z,5.15
2019-02-26T04:22:58.095Z,3.92
2019-02-26T04:25:38.169Z,4.75
2019-02-26T04:28:12.114Z,5.40
2019-02-26T04:30:58.229Z,8.03
2019-02-26T04:33:44.286Z,6.33
2019-02-26T04:36:27.543Z,4.03
2019-02-26T04:39:41.745Z,4.53
2019-02-26T04:42:17.248Z,3.62
2019-02-26T04:45:10.801Z,5.50
2019-02-26T04:47:55.455Z,6.58
2019-02-26T04:50:28.644Z,7.28
2019-02-26T04:52:59.773Z,6.72
2019-02-26T04:55:29.777Z,7.15
2019-02-26T04:57:59.234Z,5.75
2019-02-26T05:00:30.417Z,4.90
2019-02-26T05:02:59.943Z,6.90
2019-02-26T05:05:31.984Z,7.85
2019-02-26T05:08:00.643Z,7.12
2019-02-26T05:10:32.292Z,4.95
2019-02-26T05:13:03.958Z,6.95
2019-02-26T05:15:33.240Z,7.00
2019-02-26T05:18:02.799Z,4.95
2019-02-26T05:20:33.991Z,5.05
2019-02-26T05:23:06.181Z,3.95
2019-02-26T05:25:36.883Z,5.75
2019-02-26T05:28:07.129Z,11.68
2019-02-26T05:30:37.803Z,5.33
2019-02-26T05:33:08.537Z,4.17
2019-02-26T05:35:40.724Z,7.70
2019-02-26T05:38:09.619Z,6.05
2019-02-26T05:40:42.252Z,5.20
2019-02-26T05:43:10.395Z,3.92
2019-02-26T05:45:39.901Z,7.08
2019-02-26T05:48:09.387Z,7.28
2019-02-26T05:50:41.218Z,4.35
2019-02-26T05:53:13.083Z,4.45
2019-02-26T05:55:42.232Z,3.52
2019-02-26T05:58:15.658Z,4.20
2019-02-26T06:00:43.784Z,4.40
2019-02-26T06:03:16.288Z,5.95
2019-02-26T06:05:46.588Z,4.22
2019-02-26T06:08:15.884Z,5.55
2019-02-26T06:10:45.371Z,3.98
2019-02-26T06:13:15.730Z,7.17
2019-02-26T06:15:45.326Z,5.97
2019-02-26T06:18:14.834Z,6.72
2019-02-26T06:20:44.323Z,9.55
2019-02-26T06:23:13.795Z,5.95
2019-02-26T06:25:43.286Z,9.98
2019-02-26T06:28:15.421Z,11.03
2019-02-26T06:30:44.065Z,6.25
2019-02-26T06:33:13.975Z,7.20
2019-02-26T06:35:44.910Z,5.78
2019-02-26T06:38:14.425Z,7.28
2019-02-26T06:40:47.130Z,6.55
2019-02-26T06:43:15.195Z,4.15
2019-02-26T06:45:45.849Z,9.38
2019-02-26T06:48:17.634Z,5.00
2019-02-26T06:50:47.226Z,7.95
2019-02-26T06:53:20.925Z,3.95
2019-02-26T06:55:47.914Z,7.08
2019-02-26T06:58:23.631Z,6.75
2019-02-26T07:00:55.376Z,7.12
2019-02-26T07:03:24.982Z,6.53
2019-02-26T07:05:54.643Z,5.80
2019-02-26T07:08:26.127Z,6.33
2019-02-26T07:10:55.434Z,10.25
2019-02-26T07:13:24.926Z,8.43
2019-02-26T07:15:54.415Z,11.95
2019-02-26T07:18:23.913Z,8.30
2019-02-26T07:20:55.973Z,8.85
2019-02-26T07:23:24.596Z,8.88
2019-02-26T07:25:54.183Z,8.38
2019-02-26T07:28:26.425Z,8.20
2019-02-26T07:30:54.885Z,7.12
2019-02-26T07:33:24.437Z,11.95
2019-02-26T07:35:56.401Z,9.90
2019-02-26T07:38:27.423Z,6.67
2019-02-26T07:40:57.334Z,8.05
2019-02-26T07:43:27.742Z,8.20
2019-02-26T07:45:57.223Z,5.85
2019-02-26T07:48:28.939Z,7.67
2019-02-26T07:50:57.933Z,10.60
2019-02-26T07:53:27.446Z,7.50
2019-02-26T07:55:58.808Z,8.08
2019-02-26T07:58:28.265Z,4.12
2019-02-26T08:00:57.764Z,6.60
2019-02-26T08:03:29.304Z,15.48
2019-02-26T08:05:59.508Z,6.42
2019-02-26T08:08:29.679Z,9.10
2019-02-26T08:10:59.260Z,6.40
2019-02-26T08:13:29.898Z,11.05
2019-02-26T08:16:00.601Z,4.08
2019-02-26T08:18:31.257Z,6.12
2019-02-26T08:21:02.508Z,7.55
2019-02-26T08:23:32.068Z,10.18
2019-02-26T08:26:02.304Z,6.12
2019-02-26T08:28:31.871Z,3.83
2019-02-26T08:31:01.444Z,5.87
2019-02-26T08:33:30.977Z,6.60
2019-02-26T08:36:00.462Z,6.00
2019-02-26T08:38:30.300Z,6.05
2019-02-26T08:40:59.838Z,5.05
2019-02-26T08:43:29.308Z,6.75
2019-02-26T08:45:58.874Z,5.90
2019-02-26T08:48:28.344Z,6.83
2019-02-26T08:51:00.784Z,10.15
2019-02-26T08:53:31.471Z,6.42
2019-02-26T08:56:01.995Z,5.87
2019-02-26T08:58:31.567Z,5.30
2019-02-26T09:01:01.070Z,6.35
2019-02-26T09:03:40.152Z,5.27
2019-02-26T09:06:12.438Z,5.97
2019-02-26T09:08:35.390Z,7.37
2019-02-26T09:11:06.270Z,5.07
2019-02-26T09:13:36.282Z,3.60
2019-02-26T09:16:07.966Z,4.80
2019-02-26T09:18:40.391Z,4.63
2019-02-26T09:21:10.277Z,4.53
2019-02-26T09:23:40.129Z,6.40
2019-02-26T09:26:09.836Z,6.90
2019-02-26T09:28:39.399Z,6.50
2019-02-26T09:31:09.650Z,4.60
2019-02-26T09:33:40.901Z,6.03
2019-02-26T09:36:14.867Z,7.13
2019-02-26T09:38:44.309Z,4.57
2019-02-26T09:41:14.732Z,5.83
2019-02-26T09:43:45.950Z,5.33
2019-02-26T09:46:18.410Z,6.80
2019-02-26T09:48:47.420Z,8.93
2019-02-26T09:51:17.078Z,4.90
2019-02-26T09:53:47.208Z,3.60
2019-02-26T09:56:17.772Z,3.70
2019-02-26T09:58:48.358Z,4.60
2019-02-26T10:01:18.472Z,4.40
2019-02-26T10:03:48.063Z,7.23
2019-02-26T10:06:19.251Z,4.17
2019-02-26T10:08:50.801Z,5.10
2019-02-26T10:11:21.231Z,4.00
2019-02-26T10:13:51.509Z,4.20
2019-02-26T10:16:21.711Z,5.20
2019-02-26T10:18:54.323Z,5.03
2019-02-26T10:21:23.639Z,5.20
2019-02-26T10:23:54.170Z,4.67
2019-02-26T10:26:26.390Z,8.30
2019-02-26T10:29:03.214Z,5.80
2019-02-26T10:31:27.685Z,4.50
2019-02-26T10:33:57.340Z,4.37
2019-02-26T10:36:30.344Z,10.97
2019-02-26T10:39:00.258Z,4.70
2019-02-26T10:41:29.236Z,4.97
2019-02-26T10:43:59.049Z,4.67
2019-02-26T10:46:29.426Z,6.30
2019-02-26T10:48:59.837Z,7.67
2019-02-26T10:51:31.208Z,4.43
2019-02-26T10:54:02.788Z,5.17
2019-02-26T10:56:36.766Z,4.30
2019-02-26T10:59:06.846Z,5.40
2019-02-26T11:01:35.850Z,4.97
2019-02-26T11:04:05.446Z,7.17
2019-02-26T11:06:36.675Z,4.57
2019-02-26T11:09:14.435Z,6.50
2019-02-26T11:11:43.329Z,4.27
2019-02-26T11:14:15.402Z,4.53
2019-02-26T11:16:44.019Z,5.63
2019-02-26T11:19:13.508Z,5.00
2019-02-26T11:21:43.079Z,9.80
2019-02-26T11:24:12.637Z,4.30
2019-02-26T11:26:43.982Z,5.60
2019-02-26T11:29:13.497Z,4.93
2019-02-26T11:31:44.798Z,4.63
2019-02-26T11:34:14.261Z,3.57
2019-02-26T11:36:43.814Z,7.73
2019-02-26T11:39:13.369Z,5.13
2019-02-26T11:41:42.898Z,4.10
2019-02-26T11:44:15.056Z,5.80
2019-02-26T11:46:45.850Z,3.50
2019-02-26T11:49:16.948Z,6.03
2019-02-26T11:51:46.241Z,4.60
2019-02-26T11:54:17.678Z,5.43
2019-02-26T11:56:47.837Z,5.63
2019-02-26T11:59:19.462Z,4.07
2019-02-26T12:01:49.232Z,4.97
2019-02-26T12:04:18.735Z,5.80
2019-02-26T12:06:48.228Z,4.10
2019-02-26T12:09:17.719Z,4.67
2019-02-26T12:11:47.249Z,6.17
2019-02-26T12:14:18.935Z,4.00
2019-02-26T12:16:47.979Z,6.30
2019-02-26T12:19:17.526Z,5.30
2019-02-26T12:21:49.410Z,6.03
2019-02-26T12:24:18.311Z,3.50
2019-02-26T12:26:49.864Z,6.20
2019-02-26T12:29:21.051Z,4.27
2019-02-26T12:31:53.828Z,3.50
2019-02-26T12:34:23.620Z,4.90
2019-02-26T12:36:56.640Z,4.87
2019-02-26T12:39:25.691Z,4.80
2019-02-26T12:41:55.915Z,4.70
2019-02-26T12:44:25.414Z,4.17
2019-02-26T12:46:56.845Z,4.77
2019-02-26T12:49:26.138Z,4.17
2019-02-26T12:51:56.762Z,3.60
2019-02-26T12:54:29.453Z,3.90
2019-02-26T12:57:00.428Z,3.37
2019-02-26T12:59:29.359Z,3.40
2019-02-26T13:01:58.840Z,3.93
2019-02-26T13:04:28.373Z,3.20
2019-02-26T13:06:57.869Z,9.03
2019-02-26T13:09:27.333Z,5.40
2019-02-26T13:12:02.498Z,3.37
2019-02-26T13:14:28.077Z,4.20
2019-02-26T13:17:00.098Z,4.20
2019-02-26T13:19:31.282Z,4.20
2019-02-26T13:22:05.455Z,4.63
2019-02-26T13:24:31.245Z,5.33
2019-02-26T13:27:00.770Z,3.90
2019-02-26T13:29:31.393Z,4.80
2019-02-26T13:32:01.136Z,5.90
2019-02-26T13:34:30.617Z,3.40
2019-02-26T13:37:00.135Z,3.60
2019-02-26T13:39:38.055Z,5.73
2019-02-26T13:42:05.691Z,4.83
2019-02-26T13:44:32.352Z,4.43
2019-02-26T13:47:02.955Z,5.37
2019-02-26T13:49:32.430Z,5.00
2019-02-26T13:52:01.919Z,4.47
2019-02-26T13:54:31.435Z,4.97
2019-02-26T13:57:00.922Z,5.17
2019-02-26T13:59:31.869Z,3.83
2019-02-26T14:02:01.349Z,5.77
2019-02-26T14:04:30.839Z,4.77
2019-02-26T14:07:00.342Z,5.13
2019-02-26T14:09:29.879Z,6.33
2019-02-26T14:11:59.373Z,4.73
2019-02-26T14:14:29.028Z,5.97
2019-02-26T14:16:58.510Z,5.40
2019-02-26T14:19:28.025Z,5.73
2019-02-26T14:21:57.603Z,8.13
2019-02-26T14:24:27.102Z,6.50
2019-02-26T14:26:56.613Z,10.23
2019-02-26T14:29:26.116Z,5.50
2019-02-26T14:31:57.195Z,7.13
2019-02-26T14:34:26.699Z,7.83
2019-02-26T14:36:56.645Z,8.40
2019-02-26T14:39:26.142Z,9.50
2019-02-26T14:41:55.734Z,6.70
2019-02-26T14:44:25.252Z,7.27
2019-02-26T14:46:55.298Z,7.80
2019-02-26T14:49:24.898Z,5.70
2019-02-26T14:51:54.427Z,8.70
2019-02-26T14:54:23.939Z,6.00
2019-02-26T14:56:53.532Z,9.67
2019-02-26T14:59:23.010Z,6.87
2019-02-26T15:01:52.577Z,6.27
2019-02-26T15:04:22.144Z,6.83
2019-02-26T15:06:51.641Z,8.23
2019-02-26T15:09:21.139Z,6.80
2019-02-26T15:11:50.826Z,10.70
2019-02-26T15:14:20.322Z,6.10
2019-02-26T15:16:49.884Z,6.87
2019-02-26T15:19:19.750Z,7.77
2019-02-26T15:21:49.369Z,8.20
2019-02-26T15:24:18.884Z,9.00
2019-02-26T15:26:48.486Z,7.73
2019-02-26T15:29:18.003Z,5.30
2019-02-26T15:31:47.486Z,6.90
2019-02-26T15:34:17.270Z,7.00
2019-02-26T15:36:46.806Z,6.40
2019-02-26T15:39:35.646Z,6.30
2019-02-26T15:42:05.353Z,7.47
2019-02-26T15:44:34.859Z,5.87
2019-02-26T15:47:04.445Z,10.07
2019-02-26T15:49:35.788Z,7.50
2019-02-26T15:52:05.522Z,7.23
2019-02-26T15:54:35.288Z,7.40
2019-02-26T15:57:05.879Z,5.53
2019-02-26T15:59:36.128Z,6.90
2019-02-26T16:02:05.948Z,8.93
2019-02-26T16:04:35.453Z,8.47
2019-02-26T16:07:05.015Z,7.93
2019-02-26T16:09:35.749Z,7.77
2019-02-26T16:12:05.291Z,7.53
2019-02-26T16:14:34.781Z,9.40
2019-02-26T16:17:04.260Z,7.53
2019-02-26T16:19:33.750Z,8.43
2019-02-26T16:22:03.269Z,7.07
2019-02-26T16:24:32.763Z,8.23
2019-02-26T16:27:02.342Z,7.47
2019-02-26T16:29:32.234Z,8.33
2019-02-26T16:32:02.666Z,6.60
2019-02-26T16:34:35.027Z,6.73
2019-02-26T16:37:07.209Z,6.43
2019-02-26T16:39:35.530Z,12.50
2019-02-26T16:42:05.101Z,8.17
2019-02-26T16:44:34.624Z,8.70
2019-02-26T16:47:05.284Z,6.77
2019-02-26T16:49:34.893Z,7.30
2019-02-26T16:52:04.467Z,6.57
2019-02-26T16:54:34.024Z,10.80
2019-02-26T16:57:03.645Z,8.80
2019-02-26T16:59:33.199Z,5.97
2019-02-26T17:02:02.796Z,7.50
2019-02-26T17:04:32.718Z,9.70
2019-02-26T17:07:02.270Z,9.20
2019-02-26T17:09:32.023Z,6.63
2019-02-26T17:12:01.591Z,7.30
2019-02-26T17:14:31.235Z,8.60
2019-02-26T17:17:01.581Z,8.47
2019-02-26T17:19:32.304Z,7.33
2019-02-26T17:22:04.548Z,5.70
2019-02-26T17:24:33.093Z,7.57
2019-02-26T17:27:03.450Z,11.43
2019-02-26T17:29:34.021Z,8.40
2019-02-26T17:32:04.794Z,14.67
2019-02-26T17:34:34.469Z,11.53
2019-02-26T17:37:06.523Z,11.53
2019-02-26T17:39:35.514Z,9.60
2019-02-26T17:42:05.170Z,14.27
2019-02-26T17:44:34.684Z,10.33
2019-02-26T17:47:04.250Z,9.83
2019-02-26T17:49:36.268Z,10.80
2019-02-26T17:52:06.523Z,14.07
2019-02-26T17:54:36.931Z,10.63
2019-02-26T17:57:06.905Z,13.63
2019-02-26T17:59:36.465Z,12.70
2019-02-26T18:02:06.361Z,13.10
2019-02-26T18:04:35.883Z,26.33
2019-02-26T18:07:05.519Z,29.55
2019-02-26T18:09:35.069Z,24.90
2019-02-26T18:12:04.631Z,16.17
2019-02-26T18:14:38.517Z,17.80
2019-02-26T18:17:06.443Z,19.12
2019-02-26T18:19:35.979Z,14.87
2019-02-26T18:22:05.569Z,17.37
2019-02-26T18:24:35.156Z,18.75
2019-02-26T18:27:04.745Z,17.20
2019-02-26T18:29:34.302Z,28.32
2019-02-26T18:32:03.887Z,27.62
2019-02-26T18:34:33.399Z,29.87
2019-02-26T18:37:02.992Z,20.90
2019-02-26T18:39:32.545Z,21.12
2019-02-26T18:42:02.020Z,16.20
2019-02-26T18:44:31.519Z,23.60
2019-02-26T18:47:01.006Z,28.10
2019-02-26T18:49:30.563Z,22.90
2019-02-26T18:52:00.128Z,27.07
2019-02-26T18:54:29.652Z,30.17
2019-02-26T18:56:59.133Z,21.35
2019-02-26T18:59:28.643Z,15.18
2019-02-26T19:01:58.227Z,18.00
2019-02-26T19:04:27.721Z,15.72
2019-02-26T19:06:59.708Z,17.50
2019-02-26T19:09:29.416Z,16.05
2019-02-26T19:11:58.936Z,15.38
2019-02-26T19:14:28.462Z,13.90
2019-02-26T19:16:57.971Z,12.53
2019-02-26T19:19:27.626Z,12.23
2019-02-26T19:21:58.925Z,14.40
2019-02-26T19:24:28.773Z,17.30
2019-02-26T19:26:58.328Z,20.95
2019-02-26T19:29:31.182Z,19.07
2019-02-26T19:31:59.116Z,13.40
2019-02-26T19:34:29.052Z,12.47
2019-02-26T19:36:58.700Z,25.80
2019-02-26T19:39:33.784Z,13.10
2019-02-26T19:42:03.384Z,15.08
2019-02-26T19:44:35.713Z,13.45
2019-02-26T19:47:04.183Z,13.38
2019-02-26T19:49:33.735Z,24.25
2019-02-26T19:52:03.775Z,34.20
2019-02-26T19:54:33.283Z,26.82
2019-02-26T19:57:02.791Z,14.35
2019-02-26T19:59:32.267Z,18.48
2019-02-26T20:02:01.850Z,21.10
2019-02-26T20:04:31.626Z,20.43
2019-02-26T20:07:01.235Z,24.25
2019-02-26T20:09:30.761Z,35.80
2019-02-26T20:12:00.461Z,24.18
2019-02-26T20:14:30.028Z,36.15
2019-02-26T20:17:04.896Z,26.95
2019-02-26T20:19:31.915Z,19.75
2019-02-26T20:22:02.030Z,20.20
2019-02-26T20:24:31.668Z,20.65
2019-02-26T20:27:01.246Z,19.30
2019-02-26T20:29:31.397Z,14.47
2019-02-26T20:32:00.975Z,20.27
2019-02-26T20:34:30.627Z,23.70
2019-02-26T20:37:00.207Z,15.50
2019-02-26T20:39:29.775Z,16.97
2019-02-26T20:41:59.343Z,20.40
2019-02-26T20:44:28.913Z,15.60
2019-02-26T20:46:58.866Z,17.02
2019-02-26T20:49:28.589Z,44.58
2019-02-26T20:51:59.667Z,36.05
2019-02-26T20:54:29.412Z,23.15
2019-02-26T20:56:58.968Z,22.48
2019-02-26T20:59:28.471Z,17.20
2019-02-26T21:01:58.176Z,20.70
2019-02-26T21:04:27.713Z,18.12
2019-02-26T21:06:57.219Z,10.23
2019-02-26T21:09:26.730Z,11.28
2019-02-26T21:11:56.342Z,13.25
2019-02-26T21:14:25.920Z,12.78
2019-02-26T21:16:55.424Z,13.43
2019-02-26T21:21:52.648Z,31.20
2019-02-26T21:24:22.214Z,19.62
2019-02-26T21:26:52.912Z,16.37
2019-02-26T21:29:22.937Z,10.00
2019-02-26T21:31:52.732Z,18.50
2019-02-26T21:34:22.291Z,13.95
2019-02-26T21:36:51.891Z,13.88
2019-02-26T21:39:21.500Z,16.82
2019-02-26T21:41:51.090Z,13.40
2019-02-26T21:44:20.655Z,14.78
2019-02-26T21:46:50.174Z,15.28
2019-02-26T21:49:21.706Z,15.18
2019-02-26T21:51:51.283Z,22.90
2019-02-26T21:54:24.562Z,12.15
2019-02-26T21:56:52.012Z,25.70
2019-02-26T21:59:21.573Z,27.48
2019-02-26T22:01:51.094Z,31.95
2019-02-26T22:04:20.585Z,24.40
2019-02-26T22:06:50.139Z,21.60
2019-02-26T22:09:19.834Z,14.13
2019-02-26T22:11:50.867Z,14.90
2019-02-26T22:14:21.010Z,17.75
2019-02-26T22:16:51.411Z,16.48
2019-02-26T22:19:21.625Z,11.53
2019-02-26T22:21:53.223Z,17.25
2019-02-26T22:24:22.760Z,16.32
2019-02-26T22:26:52.279Z,10.78
2019-02-26T22:29:21.777Z,16.23
2019-02-26T22:31:51.324Z,11.35
2019-02-26T22:34:20.848Z,17.37
2019-02-26T22:36:50.410Z,15.88
2019-02-26T22:39:22.780Z,13.00
2019-02-26T22:41:51.383Z,12.55
2019-02-26T22:44:21.495Z,10.35
2019-02-26T22:46:51.650Z,11.50
2019-02-26T22:49:21.372Z,19.95
2019-02-26T22:51:51.010Z,15.55
2019-02-26T22:54:20.503Z,10.98
2019-02-26T22:56:49.980Z,7.20
2019-02-26T22:59:19.466Z,13.75
2019-02-26T23:01:49.198Z,11.70
2019-02-26T23:04:19.671Z,10.60
2019-02-26T23:06:49.939Z,9.43
2019-02-26T23:09:21.488Z,8.65
2019-02-26T23:11:52.169Z,16.73
2019-02-26T23:14:22.357Z,24.45
2019-02-26T23:16:52.591Z,11.35
2019-02-26T23:19:23.053Z,17.37
2019-02-26T23:21:52.604Z,12.13
2019-02-26T23:24:22.200Z,36.05
2019-02-26T23:26:51.911Z,16.25
2019-02-26T23:29:21.545Z,11.03
2019-02-26T23:31:51.600Z,22.45
2019-02-26T23:34:22.614Z,12.37
2019-02-26T23:36:52.392Z,13.03
2019-02-26T23:39:22.124Z,9.05
2019-02-26T23:41:51.645Z,11.28
2019-02-26T23:44:21.383Z,11.50
2019-02-26T23:46:50.897Z,9.88
2019-02-26T23:49:20.435Z,9.63
2019-02-26T23:51:50.979Z,6.03
2019-02-26T23:54:21.235Z,7.80
2019-02-26T23:56:52.056Z,7.15
2019-02-26T23:59:22.092Z,7.67
